sensor_id;sensor_type;location;lat;lon;timestamp;pressure;altitude;pressure_sealevel;temperature;humidity
9423;BME280;65863;49.506;10.400;2024-02-23T00:00:17;95784.50;;;7.89;75.59
9423;BME280;65863;49.506;10.400;2024-02-23T00:03:01;95766.91;;;7.57;76.84
9423;BME280;65863;49.506;10.400;2024-02-23T00:05:46;95737.91;;;7.14;76.87
9423;BME280;65863;49.506;10.400;2024-02-23T00:08:30;95807.59;;;7.61;77.12
9423;BME280;65863;49.506;10.400;2024-02-23T00:11:14;95828.63;;;7.62;77.19
9423;BME280;65863;49.506;10.400;2024-02-23T00:13:59;95793.16;;;7.35;77.13
9423;BME280;65863;49.506;10.400;2024-02-23T00:16:48;95832.25;;;7.35;77.36
9423;BME280;65863;49.506;10.400;2024-02-23T00:19:34;95778.09;;;6.91;77.51
9423;BME280;65863;49.506;10.400;2024-02-23T00:22:18;95844.06;;;7.16;77.25
9423;BME280;65863;49.506;10.400;2024-02-23T00:25:03;95868.34;;;7.23;77.61
9423;BME280;65863;49.506;10.400;2024-02-23T00:27:47;95887.13;;;7.22;78.61
9423;BME280;65863;49.506;10.400;2024-02-23T00:30:31;95861.16;;;6.93;79.09
9423;BME280;65863;49.506;10.400;2024-02-23T00:33:15;95807.00;;;6.59;79.63
9423;BME280;65863;49.506;10.400;2024-02-23T00:35:59;95848.97;;;6.88;79.19
9423;BME280;65863;49.506;10.400;2024-02-23T00:38:43;95853.97;;;6.89;78.89
9423;BME280;65863;49.506;10.400;2024-02-23T00:41:31;95869.53;;;6.93;78.87
9423;BME280;65863;49.506;10.400;2024-02-23T00:44:16;95868.28;;;6.76;79.31
9423;BME280;65863;49.506;10.400;2024-02-23T00:46:59;95848.63;;;6.47;79.79
9423;BME280;65863;49.506;10.400;2024-02-23T00:49:45;95855.25;;;6.51;79.56
9423;BME280;65863;49.506;10.400;2024-02-23T00:52:29;95885.19;;;6.51;79.38
9423;BME280;65863;49.506;10.400;2024-02-23T00:55:13;95894.59;;;6.55;79.34
9423;BME280;65863;49.506;10.400;2024-02-23T00:57:58;95899.84;;;6.51;79.19
9423;BME280;65863;49.506;10.400;2024-02-23T01:00:43;95916.53;;;6.69;77.40
9423;BME280;65863;49.506;10.400;2024-02-23T01:03:27;95921.78;;;6.65;77.83
9423;BME280;65863;49.506;10.400;2024-02-23T01:06:11;95932.06;;;6.62;78.06
9423;BME280;65863;49.506;10.400;2024-02-23T01:08:55;95904.38;;;6.47;77.43
9423;BME280;65863;49.506;10.400;2024-02-23T01:11:39;95932.13;;;6.54;78.28
9423;BME280;65863;49.506;10.400;2024-02-23T01:14:23;95930.19;;;6.47;78.15
9423;BME280;65863;49.506;10.400;2024-02-23T01:17:07;95927.88;;;6.36;78.58
9423;BME280;65863;49.506;10.400;2024-02-23T01:19:51;95895.78;;;6.17;79.39
9423;BME280;65863;49.506;10.400;2024-02-23T01:22:35;95869.63;;;5.95;79.76
9423;BME280;65863;49.506;10.400;2024-02-23T01:25:19;95904.63;;;6.24;79.68
9423;BME280;65863;49.506;10.400;2024-02-23T01:28:04;95915.47;;;6.19;80.77
9423;BME280;65863;49.506;10.400;2024-02-23T01:30:49;95859.41;;;5.80;80.61
9423;BME280;65863;49.506;10.400;2024-02-23T01:33:33;95909.63;;;6.08;81.49
9423;BME280;65863;49.506;10.400;2024-02-23T01:36:17;95906.38;;;6.01;81.80
9423;BME280;65863;49.506;10.400;2024-02-23T01:39:02;95907.16;;;5.94;81.77
9423;BME280;65863;49.506;10.400;2024-02-23T01:41:46;95951.50;;;6.17;80.98
9423;BME280;65863;49.506;10.400;2024-02-23T01:44:29;95944.59;;;6.01;81.16
9423;BME280;65863;49.506;10.400;2024-02-23T01:47:15;95973.78;;;6.17;82.04
9423;BME280;65863;49.506;10.400;2024-02-23T01:50:01;95955.41;;;5.97;82.00
9423;BME280;65863;49.506;10.400;2024-02-23T01:52:45;95924.91;;;5.81;81.98
9423;BME280;65863;49.506;10.400;2024-02-23T01:55:29;95942.13;;;5.88;81.61
9423;BME280;65863;49.506;10.400;2024-02-23T01:58:14;95902.69;;;5.56;81.80
9423;BME280;65863;49.506;10.400;2024-02-23T02:00:58;95973.94;;;6.02;81.56
9423;BME280;65863;49.506;10.400;2024-02-23T02:03:42;95905.72;;;5.50;81.03
9423;BME280;65863;49.506;10.400;2024-02-23T02:06:26;95960.59;;;5.75;81.68
9423;BME280;65863;49.506;10.400;2024-02-23T02:09:10;95942.75;;;5.78;80.31
9423;BME280;65863;49.506;10.400;2024-02-23T02:11:55;95943.06;;;5.65;80.20
9423;BME280;65863;49.506;10.400;2024-02-23T02:14:40;95979.75;;;5.71;81.21
9423;BME280;65863;49.506;10.400;2024-02-23T02:17:24;95970.72;;;5.63;81.33
9423;BME280;65863;49.506;10.400;2024-02-23T02:20:12;95984.97;;;5.67;80.97
9423;BME280;65863;49.506;10.400;2024-02-23T02:22:57;95968.22;;;5.49;79.90
9423;BME280;65863;49.506;10.400;2024-02-23T02:25:41;95934.50;;;5.20;80.20
9423;BME280;65863;49.506;10.400;2024-02-23T02:28:25;95987.88;;;5.51;79.43
9423;BME280;65863;49.506;10.400;2024-02-23T02:31:11;96029.00;;;5.61;79.66
9423;BME280;65863;49.506;10.400;2024-02-23T02:33:56;96010.31;;;5.54;80.15
9423;BME280;65863;49.506;10.400;2024-02-23T02:36:40;96015.53;;;5.49;79.44
9423;BME280;65863;49.506;10.400;2024-02-23T02:39:24;96004.34;;;5.32;80.00
9423;BME280;65863;49.506;10.400;2024-02-23T02:42:09;96014.34;;;5.35;79.53
9423;BME280;65863;49.506;10.400;2024-02-23T02:44:53;96010.47;;;5.30;79.78
9423;BME280;65863;49.506;10.400;2024-02-23T02:47:37;96019.59;;;5.23;79.97
9423;BME280;65863;49.506;10.400;2024-02-23T02:50:21;95981.91;;;4.97;79.40
9423;BME280;65863;49.506;10.400;2024-02-23T02:53:05;96035.81;;;5.42;79.15
9423;BME280;65863;49.506;10.400;2024-02-23T02:55:51;96056.06;;;5.35;79.95
9423;BME280;65863;49.506;10.400;2024-02-23T02:58:34;96028.53;;;5.14;80.47
9423;BME280;65863;49.506;10.400;2024-02-23T03:01:18;96037.44;;;5.12;81.09
9423;BME280;65863;49.506;10.400;2024-02-23T03:04:02;96039.66;;;5.14;80.71
9423;BME280;65863;49.506;10.400;2024-02-23T03:06:46;96062.41;;;5.28;80.65
9423;BME280;65863;49.506;10.400;2024-02-23T03:09:32;96020.69;;;4.95;80.98
9423;BME280;65863;49.506;10.400;2024-02-23T03:12:18;96036.00;;;5.04;80.80
9423;BME280;65863;49.506;10.400;2024-02-23T03:15:02;96019.72;;;5.00;80.73
9423;BME280;65863;49.506;10.400;2024-02-23T03:17:46;95979.69;;;4.62;81.11
9423;BME280;65863;49.506;10.400;2024-02-23T03:20:30;96036.75;;;5.04;79.58
9423;BME280;65863;49.506;10.400;2024-02-23T03:23:15;95974.69;;;4.53;80.92
9423;BME280;65863;49.506;10.400;2024-02-23T03:25:59;96059.31;;;5.16;79.38
9423;BME280;65863;49.506;10.400;2024-02-23T03:28:43;95999.44;;;4.74;79.20
9423;BME280;65863;49.506;10.400;2024-02-23T03:31:28;96052.91;;;4.98;78.99
9423;BME280;65863;49.506;10.400;2024-02-23T03:34:12;96075.09;;;5.13;78.87
9423;BME280;65863;49.506;10.400;2024-02-23T03:36:57;96072.13;;;5.11;79.38
9423;BME280;65863;49.506;10.400;2024-02-23T03:39:42;96070.69;;;5.03;78.44
9423;BME280;65863;49.506;10.400;2024-02-23T03:42:26;96104.72;;;5.18;78.99
9423;BME280;65863;49.506;10.400;2024-02-23T03:45:11;96070.53;;;4.93;79.02
9423;BME280;65863;49.506;10.400;2024-02-23T03:47:55;96087.75;;;4.99;79.29
9423;BME280;65863;49.506;10.400;2024-02-23T03:50:39;96093.31;;;4.99;79.48
9423;BME280;65863;49.506;10.400;2024-02-23T03:53:23;96097.56;;;5.00;79.34
9423;BME280;65863;49.506;10.400;2024-02-23T03:56:07;96077.75;;;4.96;79.38
9423;BME280;65863;49.506;10.400;2024-02-23T03:58:52;96060.19;;;4.86;78.26
9423;BME280;65863;49.506;10.400;2024-02-23T04:01:37;96040.00;;;4.77;77.72
9423;BME280;65863;49.506;10.400;2024-02-23T04:04:21;96070.88;;;4.97;78.65
9423;BME280;65863;49.506;10.400;2024-02-23T04:07:05;96102.56;;;5.02;78.45
9423;BME280;65863;49.506;10.400;2024-02-23T04:09:50;96087.75;;;4.99;78.13
9423;BME280;65863;49.506;10.400;2024-02-23T04:12:36;96083.31;;;4.96;78.04
9423;BME280;65863;49.506;10.400;2024-02-23T04:15:20;96075.56;;;4.87;78.13
9423;BME280;65863;49.506;10.400;2024-02-23T04:18:04;96028.09;;;4.44;78.56
9423;BME280;65863;49.506;10.400;2024-02-23T04:20:50;96084.47;;;4.77;78.33
9423;BME280;65863;49.506;10.400;2024-02-23T04:23:34;96123.34;;;4.93;78.75
9423;BME280;65863;49.506;10.400;2024-02-23T04:26:18;96098.22;;;4.75;78.59
9423;BME280;65863;49.506;10.400;2024-02-23T04:29:02;96119.16;;;4.76;79.12
9423;BME280;65863;49.506;10.400;2024-02-23T04:31:46;96123.06;;;4.65;79.53
9423;BME280;65863;49.506;10.400;2024-02-23T04:34:30;96144.16;;;4.84;79.44
9423;BME280;65863;49.506;10.400;2024-02-23T04:37:14;96121.94;;;4.69;79.45
9423;BME280;65863;49.506;10.400;2024-02-23T04:40:00;96120.28;;;4.65;79.01
9423;BME280;65863;49.506;10.400;2024-02-23T04:42:44;96138.41;;;4.82;78.88
9423;BME280;65863;49.506;10.400;2024-02-23T04:45:29;96125.84;;;4.58;79.29
9423;BME280;65863;49.506;10.400;2024-02-23T04:48:13;96134.94;;;4.58;78.48
9423;BME280;65863;49.506;10.400;2024-02-23T04:50:57;96153.63;;;4.65;79.25
9423;BME280;65863;49.506;10.400;2024-02-23T04:53:41;96117.31;;;4.56;79.24
9423;BME280;65863;49.506;10.400;2024-02-23T04:56:27;96137.16;;;4.60;79.40
9423;BME280;65863;49.506;10.400;2024-02-23T04:59:10;96171.97;;;4.76;78.49
9423;BME280;65863;49.506;10.400;2024-02-23T05:01:55;96142.34;;;4.56;79.18
9423;BME280;65863;49.506;10.400;2024-02-23T05:04:40;96135.66;;;4.59;79.43
9423;BME280;65863;49.506;10.400;2024-02-23T05:07:25;96141.41;;;4.61;79.02
9423;BME280;65863;49.506;10.400;2024-02-23T05:10:10;96117.88;;;4.46;78.74
9423;BME280;65863;49.506;10.400;2024-02-23T05:12:55;96124.56;;;4.51;78.49
9423;BME280;65863;49.506;10.400;2024-02-23T05:15:39;96153.25;;;4.69;78.60
9423;BME280;65863;49.506;10.400;2024-02-23T05:18:23;96138.63;;;4.53;78.43
9423;BME280;65863;49.506;10.400;2024-02-23T05:21:07;96161.22;;;4.57;78.53
9423;BME280;65863;49.506;10.400;2024-02-23T05:23:52;96144.19;;;4.38;79.17
9423;BME280;65863;49.506;10.400;2024-02-23T05:26:36;96129.75;;;4.39;79.14
9423;BME280;65863;49.506;10.400;2024-02-23T05:29:20;96100.50;;;4.23;79.26
9423;BME280;65863;49.506;10.400;2024-02-23T05:32:06;96159.19;;;4.50;78.76
9423;BME280;65863;49.506;10.400;2024-02-23T05:34:50;96103.09;;;4.21;78.68
9423;BME280;65863;49.506;10.400;2024-02-23T05:37:36;96149.38;;;4.41;78.81
9423;BME280;65863;49.506;10.400;2024-02-23T05:40:23;96118.47;;;4.22;79.06
9423;BME280;65863;49.506;10.400;2024-02-23T05:43:07;96141.59;;;4.47;77.95
9423;BME280;65863;49.506;10.400;2024-02-23T05:45:51;96103.84;;;4.06;78.31
9423;BME280;65863;49.506;10.400;2024-02-23T05:48:36;96146.78;;;4.43;78.19
9423;BME280;65863;49.506;10.400;2024-02-23T05:51:20;96115.88;;;4.08;77.50
9423;BME280;65863;49.506;10.400;2024-02-23T05:54:05;96141.81;;;4.34;77.64
9423;BME280;65863;49.506;10.400;2024-02-23T05:56:49;96137.16;;;4.29;77.77
9423;BME280;65863;49.506;10.400;2024-02-23T05:59:33;96160.88;;;4.30;77.95
9423;BME280;65863;49.506;10.400;2024-02-23T06:02:17;96154.94;;;4.26;78.49
9423;BME280;65863;49.506;10.400;2024-02-23T06:05:01;96140.13;;;4.23;78.41
9423;BME280;65863;49.506;10.400;2024-02-23T06:07:45;96136.06;;;4.09;78.24
9423;BME280;65863;49.506;10.400;2024-02-23T06:10:29;96167.34;;;4.33;78.91
9423;BME280;65863;49.506;10.400;2024-02-23T06:13:13;96153.25;;;4.15;78.32
9423;BME280;65863;49.506;10.400;2024-02-23T06:15:57;96153.44;;;4.09;78.93
9423;BME280;65863;49.506;10.400;2024-02-23T06:18:43;96121.59;;;3.79;78.88
9423;BME280;65863;49.506;10.400;2024-02-23T06:21:27;96180.50;;;4.24;79.12
9423;BME280;65863;49.506;10.400;2024-02-23T06:24:11;96152.91;;;4.03;79.07
9423;BME280;65863;49.506;10.400;2024-02-23T06:26:55;96170.31;;;4.19;79.18
9423;BME280;65863;49.506;10.400;2024-02-23T06:29:39;96195.31;;;4.19;79.25
9423;BME280;65863;49.506;10.400;2024-02-23T06:32:23;96084.13;;;3.26;78.39
9423;BME280;65863;49.506;10.400;2024-02-23T06:35:07;96177.69;;;3.86;79.17
9423;BME280;65863;49.506;10.400;2024-02-23T06:37:51;96184.72;;;4.02;78.45
9423;BME280;65863;49.506;10.400;2024-02-23T06:40:35;96134.91;;;3.73;77.83
9423;BME280;65863;49.506;10.400;2024-02-23T06:43:19;96196.75;;;4.05;77.86
9423;BME280;65863;49.506;10.400;2024-02-23T06:46:07;96198.44;;;4.00;77.84
9423;BME280;65863;49.506;10.400;2024-02-23T06:48:52;96219.34;;;4.17;77.29
9423;BME280;65863;49.506;10.400;2024-02-23T06:51:36;96163.22;;;3.79;77.18
9423;BME280;65863;49.506;10.400;2024-02-23T06:54:20;96230.13;;;4.28;77.40
9423;BME280;65863;49.506;10.400;2024-02-23T06:57:04;96162.66;;;3.73;77.25
9423;BME280;65863;49.506;10.400;2024-02-23T06:59:52;96233.25;;;4.17;77.50
9423;BME280;65863;49.506;10.400;2024-02-23T07:02:36;96220.84;;;4.10;76.82
9423;BME280;65863;49.506;10.400;2024-02-23T07:05:22;96201.94;;;3.93;77.91
9423;BME280;65863;49.506;10.400;2024-02-23T07:08:07;96245.31;;;4.27;77.24
9423;BME280;65863;49.506;10.400;2024-02-23T07:10:54;96216.38;;;4.07;77.58
9423;BME280;65863;49.506;10.400;2024-02-23T07:13:38;96210.47;;;4.10;76.91
9423;BME280;65863;49.506;10.400;2024-02-23T07:16:22;96229.22;;;4.25;76.99
9423;BME280;65863;49.506;10.400;2024-02-23T07:19:07;96205.66;;;4.26;76.44
9423;BME280;65863;49.506;10.400;2024-02-23T07:21:51;96237.53;;;4.33;76.31
9423;BME280;65863;49.506;10.400;2024-02-23T07:24:42;96212.00;;;4.27;76.55
9423;BME280;65863;49.506;10.400;2024-02-23T07:27:29;96218.44;;;4.22;77.05
9423;BME280;65863;49.506;10.400;2024-02-23T07:30:13;96184.72;;;4.02;76.45
9423;BME280;65863;49.506;10.400;2024-02-23T07:32:56;96211.41;;;4.21;76.39
9423;BME280;65863;49.506;10.400;2024-02-23T07:35:40;96239.78;;;4.42;75.38
9423;BME280;65863;49.506;10.400;2024-02-23T07:38:24;96239.03;;;4.34;75.81
9423;BME280;65863;49.506;10.400;2024-02-23T07:41:08;96255.88;;;4.52;74.50
9423;BME280;65863;49.506;10.400;2024-02-23T07:43:52;96258.88;;;4.61;73.79
9423;BME280;65863;49.506;10.400;2024-02-23T07:46:38;96233.47;;;4.34;73.61
9423;BME280;65863;49.506;10.400;2024-02-23T07:49:21;96235.13;;;4.37;74.17
9423;BME280;65863;49.506;10.400;2024-02-23T07:52:09;96298.50;;;4.77;74.72
9423;BME280;65863;49.506;10.400;2024-02-23T07:54:52;96270.91;;;4.79;73.90
9423;BME280;65863;49.506;10.400;2024-02-23T07:57:36;96241.63;;;4.78;74.09
9423;BME280;65863;49.506;10.400;2024-02-23T08:00:22;96261.44;;;4.90;73.53
9423;BME280;65863;49.506;10.400;2024-02-23T08:03:06;96283.50;;;5.04;73.93
9423;BME280;65863;49.506;10.400;2024-02-23T08:05:52;96276.47;;;4.95;74.63
9423;BME280;65863;49.506;10.400;2024-02-23T08:08:36;96264.03;;;4.96;73.91
9423;BME280;65863;49.506;10.400;2024-02-23T08:11:20;96242.75;;;4.75;74.25
9423;BME280;65863;49.506;10.400;2024-02-23T08:14:04;96287.94;;;5.14;74.91
9423;BME280;65863;49.506;10.400;2024-02-23T08:16:48;96257.72;;;5.03;74.78
9423;BME280;65863;49.506;10.400;2024-02-23T08:19:33;96259.78;;;5.10;74.58
9423;BME280;65863;49.506;10.400;2024-02-23T08:22:18;96267.19;;;5.15;74.08
9423;BME280;65863;49.506;10.400;2024-02-23T08:25:01;96260.31;;;5.09;73.48
9423;BME280;65863;49.506;10.400;2024-02-23T08:27:45;96229.75;;;4.86;72.95
9423;BME280;65863;49.506;10.400;2024-02-23T08:30:29;96282.00;;;5.33;72.14
9423;BME280;65863;49.506;10.400;2024-02-23T08:33:14;96257.91;;;5.21;71.42
9423;BME280;65863;49.506;10.400;2024-02-23T08:35:58;96280.25;;;5.54;71.11
9423;BME280;65863;49.506;10.400;2024-02-23T08:38:42;96267.88;;;5.39;71.04
9423;BME280;65863;49.506;10.400;2024-02-23T08:41:26;96269.41;;;5.25;71.54
9423;BME280;65863;49.506;10.400;2024-02-23T08:44:09;96295.88;;;5.41;69.06
9423;BME280;65863;49.506;10.400;2024-02-23T08:46:53;96236.03;;;5.09;68.86
9423;BME280;65863;49.506;10.400;2024-02-23T08:49:37;96261.56;;;5.39;70.29
9423;BME280;65863;49.506;10.400;2024-02-23T08:52:21;96275.09;;;5.42;70.61
9423;BME280;65863;49.506;10.400;2024-02-23T08:55:05;96225.69;;;5.02;70.45
9423;BME280;65863;49.506;10.400;2024-02-23T08:57:49;96199.75;;;4.84;71.42
9423;BME280;65863;49.506;10.400;2024-02-23T09:00:35;96223.63;;;5.10;72.27
9423;BME280;65863;49.506;10.400;2024-02-23T09:03:21;96293.00;;;5.72;71.29
9423;BME280;65863;49.506;10.400;2024-02-23T09:06:06;96256.34;;;5.50;71.27
9423;BME280;65863;49.506;10.400;2024-02-23T09:08:49;96267.31;;;5.41;69.51
9423;BME280;65863;49.506;10.400;2024-02-23T09:11:34;96281.16;;;5.64;69.02
9423;BME280;65863;49.506;10.400;2024-02-23T09:14:17;96285.63;;;5.59;68.28
9423;BME280;65863;49.506;10.400;2024-02-23T09:17:02;96262.84;;;5.45;69.09
9423;BME280;65863;49.506;10.400;2024-02-23T09:19:47;96228.63;;;5.04;68.92
9423;BME280;65863;49.506;10.400;2024-02-23T09:22:32;96288.25;;;5.49;69.33
9423;BME280;65863;49.506;10.400;2024-02-23T09:25:16;96264.91;;;5.37;68.40
9423;BME280;65863;49.506;10.400;2024-02-23T09:28:01;96270.09;;;5.41;68.10
9423;BME280;65863;49.506;10.400;2024-02-23T09:30:46;96261.22;;;5.27;67.63
9423;BME280;65863;49.506;10.400;2024-02-23T09:33:30;96289.53;;;5.48;68.90
9423;BME280;65863;49.506;10.400;2024-02-23T09:36:14;96298.97;;;5.61;68.30
9423;BME280;65863;49.506;10.400;2024-02-23T09:39:00;96313.09;;;5.63;68.46
9423;BME280;65863;49.506;10.400;2024-02-23T09:41:50;96283.78;;;5.54;67.51
9423;BME280;65863;49.506;10.400;2024-02-23T09:44:35;96273.44;;;5.39;69.45
9423;BME280;65863;49.506;10.400;2024-02-23T09:47:26;96311.38;;;5.75;68.09
9423;BME280;65863;49.506;10.400;2024-02-23T09:50:12;96307.84;;;5.75;67.06
9423;BME280;65863;49.506;10.400;2024-02-23T09:52:58;96320.84;;;5.80;68.60
9423;BME280;65863;49.506;10.400;2024-02-23T09:55:43;96305.44;;;5.71;67.76
9423;BME280;65863;49.506;10.400;2024-02-23T09:58:30;96326.53;;;5.90;68.18
9423;BME280;65863;49.506;10.400;2024-02-23T10:01:24;96282.31;;;5.53;68.60
9423;BME280;65863;49.506;10.400;2024-02-23T10:04:11;96311.03;;;5.63;67.08
9423;BME280;65863;49.506;10.400;2024-02-23T10:06:56;96320.84;;;5.72;67.56
9423;BME280;65863;49.506;10.400;2024-02-23T10:09:41;96317.38;;;5.56;67.39
9423;BME280;65863;49.506;10.400;2024-02-23T10:12:26;96332.19;;;5.74;66.75
9423;BME280;65863;49.506;10.400;2024-02-23T10:15:10;96343.81;;;5.88;65.09
9423;BME280;65863;49.506;10.400;2024-02-23T10:17:54;96303.03;;;5.75;66.30
9423;BME280;65863;49.506;10.400;2024-02-23T10:20:39;96329.53;;;5.92;65.67
9423;BME280;65863;49.506;10.400;2024-02-23T10:23:24;96347.53;;;5.98;64.42
9423;BME280;65863;49.506;10.400;2024-02-23T10:26:08;96346.78;;;5.90;64.89
9423;BME280;65863;49.506;10.400;2024-02-23T10:28:52;96330.25;;;5.92;65.37
9423;BME280;65863;49.506;10.400;2024-02-23T10:31:36;96285.59;;;5.67;64.20
9423;BME280;65863;49.506;10.400;2024-02-23T10:34:24;96333.22;;;6.02;63.68
9423;BME280;65863;49.506;10.400;2024-02-23T10:37:08;96331.53;;;6.07;63.47
9423;BME280;65863;49.506;10.400;2024-02-23T10:39:57;96324.09;;;6.09;62.04
9423;BME280;65863;49.506;10.400;2024-02-23T10:42:44;96350.41;;;6.24;63.23
9423;BME280;65863;49.506;10.400;2024-02-23T10:45:31;96339.97;;;6.32;62.33
9423;BME280;65863;49.506;10.400;2024-02-23T10:48:16;96339.22;;;6.31;61.31
9423;BME280;65863;49.506;10.400;2024-02-23T10:51:01;96291.84;;;5.91;63.70
9423;BME280;65863;49.506;10.400;2024-02-23T10:53:48;96274.75;;;5.86;61.35
9423;BME280;65863;49.506;10.400;2024-02-23T10:56:32;96351.47;;;6.36;63.05
9423;BME280;65863;49.506;10.400;2024-02-23T10:59:17;96363.25;;;6.60;60.21
9423;BME280;65863;49.506;10.400;2024-02-23T11:02:03;96300.00;;;6.04;62.54
9423;BME280;65863;49.506;10.400;2024-02-23T11:04:48;96345.94;;;6.28;63.42
9423;BME280;65863;49.506;10.400;2024-02-23T11:07:38;96338.81;;;6.35;64.91
9423;BME280;65863;49.506;10.400;2024-02-23T11:10:22;96334.84;;;6.53;65.06
9423;BME280;65863;49.506;10.400;2024-02-23T11:13:12;96355.75;;;6.37;67.35
9423;BME280;65863;49.506;10.400;2024-02-23T11:16:02;96339.59;;;6.35;68.87
9423;BME280;65863;49.506;10.400;2024-02-23T11:18:47;96317.63;;;5.99;69.42
9423;BME280;65863;49.506;10.400;2024-02-23T11:21:35;96338.50;;;6.31;70.75
9423;BME280;65863;49.506;10.400;2024-02-23T11:24:25;96354.50;;;6.23;71.14
9423;BME280;65863;49.506;10.400;2024-02-23T11:27:15;96342.97;;;6.26;70.87
9423;BME280;65863;49.506;10.400;2024-02-23T11:30:03;96338.44;;;6.38;71.06
9423;BME280;65863;49.506;10.400;2024-02-23T11:32:48;96309.63;;;6.03;70.30
9423;BME280;65863;49.506;10.400;2024-02-23T11:35:32;96290.00;;;5.85;70.73
9423;BME280;65863;49.506;10.400;2024-02-23T11:38:17;96308.50;;;6.14;71.08
9423;BME280;65863;49.506;10.400;2024-02-23T11:41:03;96309.22;;;6.14;71.85
9423;BME280;65863;49.506;10.400;2024-02-23T11:43:47;96342.50;;;6.45;71.87
9423;BME280;65863;49.506;10.400;2024-02-23T11:46:31;96310.28;;;6.27;71.43
9423;BME280;65863;49.506;10.400;2024-02-23T11:49:15;96283.53;;;6.24;69.91
9423;BME280;65863;49.506;10.400;2024-02-23T11:52:00;96298.03;;;6.22;68.60
9423;BME280;65863;49.506;10.400;2024-02-23T11:54:45;96252.69;;;5.89;67.21
9423;BME280;65863;49.506;10.400;2024-02-23T11:57:32;96318.94;;;6.38;66.26
9423;BME280;65863;49.506;10.400;2024-02-23T12:00:17;96294.28;;;6.27;67.88
9423;BME280;65863;49.506;10.400;2024-02-23T12:03:01;96277.31;;;6.08;67.80
9423;BME280;65863;49.506;10.400;2024-02-23T12:05:49;96292.75;;;6.01;68.66
9423;BME280;65863;49.506;10.400;2024-02-23T12:08:33;96316.44;;;6.25;67.96
9423;BME280;65863;49.506;10.400;2024-02-23T12:11:21;96300.16;;;6.06;69.48
9423;BME280;65863;49.506;10.400;2024-02-23T12:14:06;96301.09;;;6.01;68.82
9423;BME280;65863;49.506;10.400;2024-02-23T12:16:53;96283.44;;;6.06;67.00
9423;BME280;65863;49.506;10.400;2024-02-23T12:19:41;96282.72;;;6.06;66.15
9423;BME280;65863;49.506;10.400;2024-02-23T12:22:25;96288.50;;;6.00;66.08
9423;BME280;65863;49.506;10.400;2024-02-23T12:25:09;96304.81;;;6.03;64.66
9423;BME280;65863;49.506;10.400;2024-02-23T12:27:56;96307.41;;;6.01;64.12
9423;BME280;65863;49.506;10.400;2024-02-23T12:30:44;96306.66;;;6.09;65.52
9423;BME280;65863;49.506;10.400;2024-02-23T12:33:35;96315.53;;;6.15;64.38
9423;BME280;65863;49.506;10.400;2024-02-23T12:36:20;96295.72;;;6.03;64.66
9423;BME280;65863;49.506;10.400;2024-02-23T12:39:04;96269.38;;;5.89;64.24
9423;BME280;65863;49.506;10.400;2024-02-23T12:41:48;96284.50;;;6.18;64.80
9423;BME280;65863;49.506;10.400;2024-02-23T12:44:32;96278.06;;;6.08;65.94
9423;BME280;65863;49.506;10.400;2024-02-23T12:47:16;96310.63;;;6.31;65.24
9423;BME280;65863;49.506;10.400;2024-02-23T12:50:00;96265.22;;;6.13;67.56
9423;BME280;65863;49.506;10.400;2024-02-23T12:52:44;96277.53;;;6.35;67.03
9423;BME280;65863;49.506;10.400;2024-02-23T12:55:29;96278.41;;;6.45;67.39
9423;BME280;65863;49.506;10.400;2024-02-23T12:58:13;96276.34;;;6.46;67.17
9423;BME280;65863;49.506;10.400;2024-02-23T13:00:57;96305.66;;;6.80;68.32
9423;BME280;65863;49.506;10.400;2024-02-23T13:03:41;96281.25;;;6.63;67.15
9423;BME280;65863;49.506;10.400;2024-02-23T13:06:26;96292.13;;;6.76;67.53
9423;BME280;65863;49.506;10.400;2024-02-23T13:09:09;96301.50;;;6.88;65.49
9423;BME280;65863;49.506;10.400;2024-02-23T13:11:56;96301.00;;;6.82;64.92
9423;BME280;65863;49.506;10.400;2024-02-23T13:14:41;96277.31;;;6.66;65.40
9423;BME280;65863;49.506;10.400;2024-02-23T13:17:25;96267.53;;;6.82;67.42
9423;BME280;65863;49.506;10.400;2024-02-23T13:20:10;96243.94;;;6.58;66.22
9423;BME280;65863;49.506;10.400;2024-02-23T13:22:56;96269.34;;;6.87;65.96
9423;BME280;65863;49.506;10.400;2024-02-23T13:25:40;96271.19;;;6.67;65.48
9423;BME280;65863;49.506;10.400;2024-02-23T13:28:24;96280.91;;;6.59;65.38
9423;BME280;65863;49.506;10.400;2024-02-23T13:31:08;96261.84;;;6.47;65.89
9423;BME280;65863;49.506;10.400;2024-02-23T13:33:52;96261.97;;;6.57;65.66
9423;BME280;65863;49.506;10.400;2024-02-23T13:36:36;96266.16;;;6.66;65.18
9423;BME280;65863;49.506;10.400;2024-02-23T13:39:21;96239.28;;;6.61;65.95
9423;BME280;65863;49.506;10.400;2024-02-23T13:42:06;96270.78;;;6.71;65.64
9423;BME280;65863;49.506;10.400;2024-02-23T13:44:52;96248.25;;;6.77;65.35
9423;BME280;65863;49.506;10.400;2024-02-23T13:47:36;96267.75;;;7.02;64.85
9423;BME280;65863;49.506;10.400;2024-02-23T13:50:20;96247.19;;;6.72;64.47
9423;BME280;65863;49.506;10.400;2024-02-23T13:53:04;96266.69;;;6.72;64.43
9423;BME280;65863;49.506;10.400;2024-02-23T13:55:48;96258.59;;;6.84;64.34
9423;BME280;65863;49.506;10.400;2024-02-23T13:58:31;96240.69;;;6.44;64.86
9423;BME280;65863;49.506;10.400;2024-02-23T14:01:16;96232.38;;;6.62;63.61
9423;BME280;65863;49.506;10.400;2024-02-23T14:04:06;96205.06;;;6.35;64.56
9423;BME280;65863;49.506;10.400;2024-02-23T14:06:51;96229.22;;;6.83;64.02
9423;BME280;65863;49.506;10.400;2024-02-23T14:09:35;96262.69;;;6.83;64.44
9423;BME280;65863;49.506;10.400;2024-02-23T14:12:20;96245.84;;;6.98;63.72
9423;BME280;65863;49.506;10.400;2024-02-23T14:15:05;96221.78;;;6.85;62.21
9423;BME280;65863;49.506;10.400;2024-02-23T14:17:49;96248.34;;;7.12;62.77
9423;BME280;65863;49.506;10.400;2024-02-23T14:20:34;96149.69;;;6.39;63.08
9423;BME280;65863;49.506;10.400;2024-02-23T14:23:18;96233.53;;;7.01;62.18
9423;BME280;65863;49.506;10.400;2024-02-23T14:26:04;96239.34;;;6.96;63.28
9423;BME280;65863;49.506;10.400;2024-02-23T14:28:49;96229.53;;;7.12;64.15
9423;BME280;65863;49.506;10.400;2024-02-23T14:31:33;96149.75;;;6.74;63.57
9423;BME280;65863;49.506;10.400;2024-02-23T14:34:20;96205.16;;;7.13;61.79
9423;BME280;65863;49.506;10.400;2024-02-23T14:37:07;96194.84;;;6.80;62.35
9423;BME280;65863;49.506;10.400;2024-02-23T14:39:51;96199.56;;;6.78;62.85
9423;BME280;65863;49.506;10.400;2024-02-23T14:42:35;96202.84;;;6.84;63.18